sensor_id;sensor_type;location;lat;lon;timestamp;P1;durP1;ratioP1;P2;durP2;ratioP2
39400;SDS011;75540;50.000;7.360;2024-01-16T00:02:19;8.38;;;4.15;;
39400;SDS011;75540;50.000;7.360;2024-01-16T00:04:48;8.25;;;4.40;;
39400;SDS011;75540;50.000;7.360;2024-01-16T00:07:16;11.40;;;5.25;;
39400;SDS011;75540;50.000;7.360;2024-01-16T00:09:44;12.82;;;6.60;;
39400;SDS011;75540;50.000;7.360;2024-01-16T00:12:13;6.82;;;3.92;;
39400;SDS011;75540;50.000;7.360;2024-01-16T00:14:41;10.10;;;4.25;;
39400;SDS011;75540;50.000;7.360;2024-01-16T00:17:09;10.75;;;5.78;;
39400;SDS011;75540;50.000;7.360;2024-01-16T00:19:39;11.02;;;5.50;;
39400;SDS011;75540;50.000;7.360;2024-01-16T00:22:07;8.13;;;3.60;;
39400;SDS011;75540;50.000;7.360;2024-01-16T00:24:36;9.70;;;4.72;;
39400;SDS011;75540;50.000;7.360;2024-01-16T00:27:04;10.70;;;5.60;;
39400;SDS011;75540;50.000;7.360;2024-01-16T00:29:32;13.30;;;6.75;;
39400;SDS011;75540;50.000;7.360;2024-01-16T00:32:00;12.23;;;6.68;;
39400;SDS011;75540;50.000;7.360;2024-01-16T00:34:29;12.18;;;5.85;;
39400;SDS011;75540;50.000;7.360;2024-01-16T00:36:58;9.38;;;6.65;;
39400;SDS011;75540;50.000;7.360;2024-01-16T00:39:26;8.43;;;4.25;;
39400;SDS011;75540;50.000;7.360;2024-01-16T00:41:55;10.13;;;4.18;;
39400;SDS011;75540;50.000;7.360;2024-01-16T00:44:23;8.45;;;5.57;;
39400;SDS011;75540;50.000;7.360;2024-01-16T00:46:51;8.57;;;5.18;;
39400;SDS011;75540;50.000;7.360;2024-01-16T00:49:19;15.98;;;6.90;;
39400;SDS011;75540;50.000;7.360;2024-01-16T00:51:47;9.23;;;4.20;;
39400;SDS011;75540;50.000;7.360;2024-01-16T00:54:17;6.20;;;3.75;;
39400;SDS011;75540;50.000;7.360;2024-01-16T00:56:45;11.00;;;5.15;;
39400;SDS011;75540;50.000;7.360;2024-01-16T00:59:13;8.15;;;4.53;;
39400;SDS011;75540;50.000;7.360;2024-01-16T01:01:42;9.95;;;4.22;;
39400;SDS011;75540;50.000;7.360;2024-01-16T01:04:10;8.13;;;4.45;;
39400;SDS011;75540;50.000;7.360;2024-01-16T01:06:38;12.73;;;5.80;;
39400;SDS011;75540;50.000;7.360;2024-01-16T01:09:06;8.02;;;4.07;;
39400;SDS011;75540;50.000;7.360;2024-01-16T01:11:39;10.50;;;5.88;;
39400;SDS011;75540;50.000;7.360;2024-01-16T01:14:08;10.48;;;5.72;;
39400;SDS011;75540;50.000;7.360;2024-01-16T01:16:36;10.18;;;5.18;;
39400;SDS011;75540;50.000;7.360;2024-01-16T01:19:04;12.00;;;5.78;;
39400;SDS011;75540;50.000;7.360;2024-01-16T01:21:35;5.50;;;3.65;;
39400;SDS011;75540;50.000;7.360;2024-01-16T01:24:03;10.68;;;5.63;;
39400;SDS011;75540;50.000;7.360;2024-01-16T01:26:31;12.05;;;5.97;;
39400;SDS011;75540;50.000;7.360;2024-01-16T01:29:01;11.23;;;6.20;;
39400;SDS011;75540;50.000;7.360;2024-01-16T01:31:29;9.63;;;5.43;;
39400;SDS011;75540;50.000;7.360;2024-01-16T01:33:58;9.38;;;5.25;;
39400;SDS011;75540;50.000;7.360;2024-01-16T01:36:26;13.20;;;5.57;;
39400;SDS011;75540;50.000;7.360;2024-01-16T01:38:54;12.25;;;4.45;;
39400;SDS011;75540;50.000;7.360;2024-01-16T01:41:22;10.73;;;4.95;;
39400;SDS011;75540;50.000;7.360;2024-01-16T01:43:51;9.63;;;4.03;;
39400;SDS011;75540;50.000;7.360;2024-01-16T01:46:20;7.65;;;3.70;;
39400;SDS011;75540;50.000;7.360;2024-01-16T01:48:49;11.20;;;5.25;;
39400;SDS011;75540;50.000;7.360;2024-01-16T01:51:18;9.88;;;4.88;;
39400;SDS011;75540;50.000;7.360;2024-01-16T01:53:48;11.85;;;5.45;;
39400;SDS011;75540;50.000;7.360;2024-01-16T01:56:18;7.72;;;3.85;;
39400;SDS011;75540;50.000;7.360;2024-01-16T01:58:47;14.20;;;6.05;;
39400;SDS011;75540;50.000;7.360;2024-01-16T02:01:17;13.27;;;4.38;;
39400;SDS011;75540;50.000;7.360;2024-01-16T02:03:49;10.32;;;4.57;;
39400;SDS011;75540;50.000;7.360;2024-01-16T02:06:20;10.50;;;4.43;;
39400;SDS011;75540;50.000;7.360;2024-01-16T02:08:48;14.60;;;5.63;;
39400;SDS011;75540;50.000;7.360;2024-01-16T02:11:17;6.70;;;3.95;;
39400;SDS011;75540;50.000;7.360;2024-01-16T02:13:46;12.43;;;4.65;;
39400;SDS011;75540;50.000;7.360;2024-01-16T02:16:18;9.55;;;4.43;;
39400;SDS011;75540;50.000;7.360;2024-01-16T02:18:53;9.85;;;4.57;;
39400;SDS011;75540;50.000;7.360;2024-01-16T02:21:22;11.48;;;6.70;;
39400;SDS011;75540;50.000;7.360;2024-01-16T02:23:54;10.13;;;4.25;;
39400;SDS011;75540;50.000;7.360;2024-01-16T02:26:22;11.20;;;4.97;;
39400;SDS011;75540;50.000;7.360;2024-01-16T02:28:51;9.00;;;3.97;;
39400;SDS011;75540;50.000;7.360;2024-01-16T02:31:19;10.35;;;4.93;;
39400;SDS011;75540;50.000;7.360;2024-01-16T02:33:47;10.57;;;4.85;;
39400;SDS011;75540;50.000;7.360;2024-01-16T02:36:15;16.05;;;4.68;;
39400;SDS011;75540;50.000;7.360;2024-01-16T02:38:44;8.35;;;4.72;;
39400;SDS011;75540;50.000;7.360;2024-01-16T02:41:16;10.88;;;3.97;;
39400;SDS011;75540;50.000;7.360;2024-01-16T02:43:44;9.60;;;4.65;;
39400;SDS011;75540;50.000;7.360;2024-01-16T02:46:13;13.00;;;5.40;;
39400;SDS011;75540;50.000;7.360;2024-01-16T02:48:41;11.07;;;5.40;;
39400;SDS011;75540;50.000;7.360;2024-01-16T02:51:09;11.80;;;4.97;;
39400;SDS011;75540;50.000;7.360;2024-01-16T02:53:38;8.43;;;4.38;;
39400;SDS011;75540;50.000;7.360;2024-01-16T02:56:07;13.23;;;5.55;;
39400;SDS011;75540;50.000;7.360;2024-01-16T02:58:37;13.95;;;4.05;;
39400;SDS011;75540;50.000;7.360;2024-01-16T03:01:05;11.20;;;4.68;;
39400;SDS011;75540;50.000;7.360;2024-01-16T03:03:33;9.32;;;4.75;;
39400;SDS011;75540;50.000;7.360;2024-01-16T03:06:02;11.80;;;4.95;;
39400;SDS011;75540;50.000;7.360;2024-01-16T03:08:30;9.55;;;5.03;;
39400;SDS011;75540;50.000;7.360;2024-01-16T03:10:58;9.95;;;4.45;;
39400;SDS011;75540;50.000;7.360;2024-01-16T03:13:27;8.35;;;3.40;;
39400;SDS011;75540;50.000;7.360;2024-01-16T03:15:56;11.40;;;5.20;;
39400;SDS011;75540;50.000;7.360;2024-01-16T03:18:24;9.63;;;4.22;;
39400;SDS011;75540;50.000;7.360;2024-01-16T03:20:53;10.13;;;4.88;;
39400;SDS011;75540;50.000;7.360;2024-01-16T03:23:21;9.45;;;4.63;;
39400;SDS011;75540;50.000;7.360;2024-01-16T03:25:49;14.63;;;6.68;;
39400;SDS011;75540;50.000;7.360;2024-01-16T03:28:18;11.10;;;4.95;;
39400;SDS011;75540;50.000;7.360;2024-01-16T03:30:47;13.13;;;5.47;;
39400;SDS011;75540;50.000;7.360;2024-01-16T03:33:16;12.98;;;4.85;;
39400;SDS011;75540;50.000;7.360;2024-01-16T03:35:45;12.07;;;5.00;;
39400;SDS011;75540;50.000;7.360;2024-01-16T03:38:14;9.43;;;4.80;;
39400;SDS011;75540;50.000;7.360;2024-01-16T03:40:42;11.85;;;5.50;;
39400;SDS011;75540;50.000;7.360;2024-01-16T03:43:10;9.02;;;3.83;;
39400;SDS011;75540;50.000;7.360;2024-01-16T03:45:39;9.88;;;4.45;;
39400;SDS011;75540;50.000;7.360;2024-01-16T03:48:07;10.70;;;5.13;;
39400;SDS011;75540;50.000;7.360;2024-01-16T03:50:37;10.88;;;4.65;;
39400;SDS011;75540;50.000;7.360;2024-01-16T03:53:06;11.23;;;5.22;;
39400;SDS011;75540;50.000;7.360;2024-01-16T03:55:35;15.85;;;5.38;;
39400;SDS011;75540;50.000;7.360;2024-01-16T03:58:03;7.15;;;2.88;;
39400;SDS011;75540;50.000;7.360;2024-01-16T04:00:31;7.97;;;4.07;;
39400;SDS011;75540;50.000;7.360;2024-01-16T04:02:59;11.48;;;5.15;;
39400;SDS011;75540;50.000;7.360;2024-01-16T04:05:28;11.85;;;4.22;;
39400;SDS011;75540;50.000;7.360;2024-01-16T04:07:57;9.73;;;4.03;;
39400;SDS011;75540;50.000;7.360;2024-01-16T04:10:26;10.07;;;4.38;;
39400;SDS011;75540;50.000;7.360;2024-01-16T04:12:54;12.02;;;4.72;;
39400;SDS011;75540;50.000;7.360;2024-01-16T04:15:22;7.70;;;4.07;;
39400;SDS011;75540;50.000;7.360;2024-01-16T04:17:50;13.60;;;5.35;;
39400;SDS011;75540;50.000;7.360;2024-01-16T04:20:18;12.50;;;4.68;;
39400;SDS011;75540;50.000;7.360;2024-01-16T04:22:47;9.85;;;4.55;;
39400;SDS011;75540;50.000;7.360;2024-01-16T04:25:18;14.68;;;4.82;;
39400;SDS011;75540;50.000;7.360;2024-01-16T04:27:54;8.50;;;4.15;;
39400;SDS011;75540;50.000;7.360;2024-01-16T04:30:23;11.93;;;4.60;;
39400;SDS011;75540;50.000;7.360;2024-01-16T04:32:51;6.38;;;3.70;;
39400;SDS011;75540;50.000;7.360;2024-01-16T04:35:19;13.10;;;4.90;;
39400;SDS011;75540;50.000;7.360;2024-01-16T04:37:48;13.20;;;4.70;;
39400;SDS011;75540;50.000;7.360;2024-01-16T04:40:18;11.70;;;4.15;;
39400;SDS011;75540;50.000;7.360;2024-01-16T04:42:46;11.48;;;4.93;;
39400;SDS011;75540;50.000;7.360;2024-01-16T04:45:14;9.70;;;4.35;;
39400;SDS011;75540;50.000;7.360;2024-01-16T04:47:43;10.73;;;4.45;;
39400;SDS011;75540;50.000;7.360;2024-01-16T04:50:11;8.90;;;3.72;;
39400;SDS011;75540;50.000;7.360;2024-01-16T04:52:39;8.85;;;4.85;;
39400;SDS011;75540;50.000;7.360;2024-01-16T04:55:07;9.68;;;5.00;;
39400;SDS011;75540;50.000;7.360;2024-01-16T04:57:37;12.68;;;4.60;;
39400;SDS011;75540;50.000;7.360;2024-01-16T05:00:06;14.88;;;6.30;;
39400;SDS011;75540;50.000;7.360;2024-01-16T05:02:35;11.43;;;4.63;;
39400;SDS011;75540;50.000;7.360;2024-01-16T05:05:05;9.30;;;4.82;;
39400;SDS011;75540;50.000;7.360;2024-01-16T05:07:34;12.13;;;4.93;;
39400;SDS011;75540;50.000;7.360;2024-01-16T05:10:02;10.30;;;5.13;;
39400;SDS011;75540;50.000;7.360;2024-01-16T05:12:31;14.07;;;5.40;;
39400;SDS011;75540;50.000;7.360;2024-01-16T05:15:01;10.05;;;4.78;;
39400;SDS011;75540;50.000;7.360;2024-01-16T05:17:29;10.60;;;4.90;;
39400;SDS011;75540;50.000;7.360;2024-01-16T05:19:57;8.82;;;4.38;;
39400;SDS011;75540;50.000;7.360;2024-01-16T05:22:25;13.52;;;5.78;;
39400;SDS011;75540;50.000;7.360;2024-01-16T05:24:54;10.23;;;4.60;;
39400;SDS011;75540;50.000;7.360;2024-01-16T05:27:22;12.32;;;4.95;;
39400;SDS011;75540;50.000;7.360;2024-01-16T05:29:51;11.40;;;4.63;;
39400;SDS011;75540;50.000;7.360;2024-01-16T05:32:21;14.10;;;5.18;;
39400;SDS011;75540;50.000;7.360;2024-01-16T05:34:49;12.57;;;5.35;;
39400;SDS011;75540;50.000;7.360;2024-01-16T05:37:18;17.42;;;5.70;;
39400;SDS011;75540;50.000;7.360;2024-01-16T05:39:47;7.90;;;4.95;;
39400;SDS011;75540;50.000;7.360;2024-01-16T05:42:15;11.25;;;4.85;;
39400;SDS011;75540;50.000;7.360;2024-01-16T05:44:44;10.00;;;4.75;;
39400;SDS011;75540;50.000;7.360;2024-01-16T05:47:12;11.05;;;4.82;;
39400;SDS011;75540;50.000;7.360;2024-01-16T05:49:43;11.05;;;4.20;;
39400;SDS011;75540;50.000;7.360;2024-01-16T05:52:11;12.88;;;4.70;;
39400;SDS011;75540;50.000;7.360;2024-01-16T05:54:39;10.13;;;4.90;;
39400;SDS011;75540;50.000;7.360;2024-01-16T05:57:08;12.82;;;4.80;;
39400;SDS011;75540;50.000;7.360;2024-01-16T05:59:36;10.98;;;4.22;;
39400;SDS011;75540;50.000;7.360;2024-01-16T06:02:05;8.00;;;3.90;;
39400;SDS011;75540;50.000;7.360;2024-01-16T06:04:33;8.25;;;3.90;;
39400;SDS011;75540;50.000;7.360;2024-01-16T06:07:03;11.02;;;4.28;;
39400;SDS011;75540;50.000;7.360;2024-01-16T06:09:33;10.57;;;4.28;;
39400;SDS011;75540;50.000;7.360;2024-01-16T06:12:05;7.47;;;4.60;;
39400;SDS011;75540;50.000;7.360;2024-01-16T06:14:34;10.10;;;4.05;;
39400;SDS011;75540;50.000;7.360;2024-01-16T06:17:03;8.30;;;4.13;;
39400;SDS011;75540;50.000;7.360;2024-01-16T06:19:32;13.80;;;4.13;;
39400;SDS011;75540;50.000;7.360;2024-01-16T06:22:00;7.80;;;3.47;;
39400;SDS011;75540;50.000;7.360;2024-01-16T06:24:30;6.97;;;3.30;;
39400;SDS011;75540;50.000;7.360;2024-01-16T06:27:04;5.47;;;3.30;;
39400;SDS011;75540;50.000;7.360;2024-01-16T06:29:33;9.52;;;3.97;;
39400;SDS011;75540;50.000;7.360;2024-01-16T06:32:01;8.57;;;4.43;;
39400;SDS011;75540;50.000;7.360;2024-01-16T06:34:29;15.93;;;4.32;;
39400;SDS011;75540;50.000;7.360;2024-01-16T06:36:58;10.07;;;3.72;;
39400;SDS011;75540;50.000;7.360;2024-01-16T06:39:27;13.15;;;4.18;;
39400;SDS011;75540;50.000;7.360;2024-01-16T06:41:56;10.57;;;4.22;;
39400;SDS011;75540;50.000;7.360;2024-01-16T06:44:29;10.82;;;4.70;;
39400;SDS011;75540;50.000;7.360;2024-01-16T06:46:58;10.48;;;4.22;;
39400;SDS011;75540;50.000;7.360;2024-01-16T06:49:26;12.63;;;4.18;;
39400;SDS011;75540;50.000;7.360;2024-01-16T06:51:54;10.88;;;3.95;;
39400;SDS011;75540;50.000;7.360;2024-01-16T06:54:23;9.77;;;3.92;;
39400;SDS011;75540;50.000;7.360;2024-01-16T06:56:53;11.82;;;4.30;;
39400;SDS011;75540;50.000;7.360;2024-01-16T06:59:22;11.35;;;4.20;;
39400;SDS011;75540;50.000;7.360;2024-01-16T07:01:50;7.53;;;3.83;;
39400;SDS011;75540;50.000;7.360;2024-01-16T07:04:19;9.38;;;4.07;;
39400;SDS011;75540;50.000;7.360;2024-01-16T07:06:47;9.00;;;4.28;;
39400;SDS011;75540;50.000;7.360;2024-01-16T07:09:16;9.35;;;4.50;;
39400;SDS011;75540;50.000;7.360;2024-01-16T07:11:47;8.68;;;4.30;;
39400;SDS011;75540;50.000;7.360;2024-01-16T07:14:16;10.93;;;4.55;;
39400;SDS011;75540;50.000;7.360;2024-01-16T07:16:44;7.90;;;3.67;;
39400;SDS011;75540;50.000;7.360;2024-01-16T07:19:13;11.32;;;3.85;;
39400;SDS011;75540;50.000;7.360;2024-01-16T07:21:41;10.07;;;4.40;;
39400;SDS011;75540;50.000;7.360;2024-01-16T07:24:11;8.60;;;3.85;;
39400;SDS011;75540;50.000;7.360;2024-01-16T07:26:40;10.80;;;4.07;;
39400;SDS011;75540;50.000;7.360;2024-01-16T07:29:08;10.55;;;3.85;;
39400;SDS011;75540;50.000;7.360;2024-01-16T07:31:38;10.70;;;3.88;;
39400;SDS011;75540;50.000;7.360;2024-01-16T07:34:07;8.15;;;4.13;;
39400;SDS011;75540;50.000;7.360;2024-01-16T07:36:36;16.20;;;4.30;;
39400;SDS011;75540;50.000;7.360;2024-01-16T07:39:04;10.10;;;4.45;;
39400;SDS011;75540;50.000;7.360;2024-01-16T07:41:32;11.95;;;4.80;;
39400;SDS011;75540;50.000;7.360;2024-01-16T07:44:01;10.32;;;4.03;;
39400;SDS011;75540;50.000;7.360;2024-01-16T07:46:30;17.30;;;4.78;;
39400;SDS011;75540;50.000;7.360;2024-01-16T07:49:00;13.07;;;5.18;;
39400;SDS011;75540;50.000;7.360;2024-01-16T07:51:28;11.02;;;3.75;;
39400;SDS011;75540;50.000;7.360;2024-01-16T07:54:04;10.38;;;3.83;;
39400;SDS011;75540;50.000;7.360;2024-01-16T07:56:34;9.65;;;3.78;;
39400;SDS011;75540;50.000;7.360;2024-01-16T07:59:03;9.77;;;4.43;;
39400;SDS011;75540;50.000;7.360;2024-01-16T08:01:31;7.97;;;3.40;;
39400;SDS011;75540;50.000;7.360;2024-01-16T08:04:01;9.65;;;3.65;;
39400;SDS011;75540;50.000;7.360;2024-01-16T08:06:29;9.93;;;4.63;;
39400;SDS011;75540;50.000;7.360;2024-01-16T08:08:58;9.65;;;3.67;;
39400;SDS011;75540;50.000;7.360;2024-01-16T08:11:26;7.63;;;3.58;;
39400;SDS011;75540;50.000;7.360;2024-01-16T08:13:55;10.38;;;4.38;;
39400;SDS011;75540;50.000;7.360;2024-01-16T08:16:24;11.75;;;5.38;;
39400;SDS011;75540;50.000;7.360;2024-01-16T08:18:53;8.57;;;4.22;;
39400;SDS011;75540;50.000;7.360;2024-01-16T08:21:22;15.63;;;5.63;;
39400;SDS011;75540;50.000;7.360;2024-01-16T08:23:51;9.10;;;4.40;;
39400;SDS011;75540;50.000;7.360;2024-01-16T08:26:19;9.23;;;3.97;;
39400;SDS011;75540;50.000;7.360;2024-01-16T08:28:47;11.40;;;4.10;;
39400;SDS011;75540;50.000;7.360;2024-01-16T08:31:16;12.10;;;4.18;;
39400;SDS011;75540;50.000;7.360;2024-01-16T08:33:45;10.23;;;3.90;;
39400;SDS011;75540;50.000;7.360;2024-01-16T08:36:14;10.88;;;3.92;;
39400;SDS011;75540;50.000;7.360;2024-01-16T08:38:44;12.75;;;4.15;;
39400;SDS011;75540;50.000;7.360;2024-01-16T08:41:12;7.55;;;3.20;;
39400;SDS011;75540;50.000;7.360;2024-01-16T08:43:40;9.45;;;3.72;;
39400;SDS011;75540;50.000;7.360;2024-01-16T08:46:09;8.68;;;3.42;;
39400;SDS011;75540;50.000;7.360;2024-01-16T08:48:37;9.05;;;3.70;;
39400;SDS011;75540;50.000;7.360;2024-01-16T08:51:07;12.63;;;3.97;;
39400;SDS011;75540;50.000;7.360;2024-01-16T08:53:38;8.18;;;4.35;;
39400;SDS011;75540;50.000;7.360;2024-01-16T08:56:08;10.75;;;3.90;;
39400;SDS011;75540;50.000;7.360;2024-01-16T08:58:38;10.75;;;4.38;;
39400;SDS011;75540;50.000;7.360;2024-01-16T09:01:07;9.32;;;3.75;;
39400;SDS011;75540;50.000;7.360;2024-01-16T09:03:37;15.27;;;6.00;;
39400;SDS011;75540;50.000;7.360;2024-01-16T09:06:05;9.77;;;4.68;;
39400;SDS011;75540;50.000;7.360;2024-01-16T09:08:35;8.38;;;4.35;;
39400;SDS011;75540;50.000;7.360;2024-01-16T09:11:03;10.40;;;4.55;;
39400;SDS011;75540;50.000;7.360;2024-01-16T09:13:32;12.00;;;4.88;;
39400;SDS011;75540;50.000;7.360;2024-01-16T09:16:01;10.18;;;3.85;;
39400;SDS011;75540;50.000;7.360;2024-01-16T09:18:30;10.10;;;4.57;;
39400;SDS011;75540;50.000;7.360;2024-01-16T09:20:58;9.73;;;4.10;;
39400;SDS011;75540;50.000;7.360;2024-01-16T09:23:26;10.50;;;4.18;;
39400;SDS011;75540;50.000;7.360;2024-01-16T09:25:54;8.32;;;3.90;;
39400;SDS011;75540;50.000;7.360;2024-01-16T09:28:22;7.88;;;4.18;;
39400;SDS011;75540;50.000;7.360;2024-01-16T09:30:55;8.50;;;3.78;;
39400;SDS011;75540;50.000;7.360;2024-01-16T09:33:24;9.90;;;3.83;;
39400;SDS011;75540;50.000;7.360;2024-01-16T09:35:53;10.18;;;4.03;;
39400;SDS011;75540;50.000;7.360;2024-01-16T09:38:21;10.65;;;4.60;;
39400;SDS011;75540;50.000;7.360;2024-01-16T09:40:49;9.00;;;4.15;;
39400;SDS011;75540;50.000;7.360;2024-01-16T09:43:18;9.90;;;5.13;;
39400;SDS011;75540;50.000;7.360;2024-01-16T09:45:48;11.10;;;3.83;;
39400;SDS011;75540;50.000;7.360;2024-01-16T09:48:21;9.18;;;4.40;;
39400;SDS011;75540;50.000;7.360;2024-01-16T09:50:50;5.53;;;3.55;;
39400;SDS011;75540;50.000;7.360;2024-01-16T09:53:18;9.50;;;4.10;;
39400;SDS011;75540;50.000;7.360;2024-01-16T09:55:47;11.07;;;4.70;;
39400;SDS011;75540;50.000;7.360;2024-01-16T09:58:17;10.35;;;4.68;;
39400;SDS011;75540;50.000;7.360;2024-01-16T10:00:48;11.63;;;4.82;;
39400;SDS011;75540;50.000;7.360;2024-01-16T10:03:18;11.65;;;4.95;;
39400;SDS011;75540;50.000;7.360;2024-01-16T10:05:49;9.68;;;4.50;;
39400;SDS011;75540;50.000;7.360;2024-01-16T10:08:17;11.23;;;4.25;;
39400;SDS011;75540;50.000;7.360;2024-01-16T10:10:48;12.57;;;4.40;;
39400;SDS011;75540;50.000;7.360;2024-01-16T10:13:16;10.65;;;4.85;;
39400;SDS011;75540;50.000;7.360;2024-01-16T10:15:48;9.05;;;4.45;;
39400;SDS011;75540;50.000;7.360;2024-01-16T10:18:25;9.10;;;4.00;;
39400;SDS011;75540;50.000;7.360;2024-01-16T10:20:56;9.00;;;3.97;;
39400;SDS011;75540;50.000;7.360;2024-01-16T10:23:24;11.15;;;3.95;;
39400;SDS011;75540;50.000;7.360;2024-01-16T10:26:06;8.20;;;3.83;;
39400;SDS011;75540;50.000;7.360;2024-01-16T10:28:35;7.70;;;3.97;;
39400;SDS011;75540;50.000;7.360;2024-01-16T10:31:04;12.02;;;4.45;;
39400;SDS011;75540;50.000;7.360;2024-01-16T10:33:35;9.00;;;3.60;;
39400;SDS011;75540;50.000;7.360;2024-01-16T10:36:09;9.02;;;3.55;;
39400;SDS011;75540;50.000;7.360;2024-01-16T10:38:38;10.02;;;4.03;;
39400;SDS011;75540;50.000;7.360;2024-01-16T10:41:11;7.72;;;3.65;;
39400;SDS011;75540;50.000;7.360;2024-01-16T10:43:40;11.45;;;3.95;;
39400;SDS011;75540;50.000;7.360;2024-01-16T10:46:12;12.95;;;4.68;;
39400;SDS011;75540;50.000;7.360;2024-01-16T10:48:43;9.52;;;3.60;;
39400;SDS011;75540;50.000;7.360;2024-01-16T10:51:14;8.43;;;4.20;;
39400;SDS011;75540;50.000;7.360;2024-01-16T10:53:43;15.10;;;4.97;;
39400;SDS011;75540;50.000;7.360;2024-01-16T10:56:14;11.13;;;4.47;;
39400;SDS011;75540;50.000;7.360;2024-01-16T10:58:45;9.20;;;4.20;;
39400;SDS011;75540;50.000;7.360;2024-01-16T11:01:18;13.15;;;5.18;;
39400;SDS011;75540;50.000;7.360;2024-01-16T11:03:48;12.23;;;5.13;;
39400;SDS011;75540;50.000;7.360;2024-01-16T11:06:17;7.05;;;4.30;;
39400;SDS011;75540;50.000;7.360;2024-01-16T11:08:46;9.85;;;4.22;;
39400;SDS011;75540;50.000;7.360;2024-01-16T11:11:15;13.90;;;4.35;;
39400;SDS011;75540;50.000;7.360;2024-01-16T11:13:44;12.15;;;5.30;;
39400;SDS011;75540;50.000;7.360;2024-01-16T11:16:13;9.55;;;4.65;;
39400;SDS011;75540;50.000;7.360;2024-01-16T11:18:42;12.88;;;4.55;;
39400;SDS011;75540;50.000;7.360;2024-01-16T11:21:12;8.93;;;4.20;;
39400;SDS011;75540;50.000;7.360;2024-01-16T11:23:42;16.63;;;4.75;;
39400;SDS011;75540;50.000;7.360;2024-01-16T11:26:24;14.55;;;4.22;;
39400;SDS011;75540;50.000;7.360;2024-01-16T11:28:53;10.75;;;4.40;;
39400;SDS011;75540;50.000;7.360;2024-01-16T11:31:32;13.05;;;5.07;;
39400;SDS011;75540;50.000;7.360;2024-01-16T11:34:02;11.15;;;3.97;;
39400;SDS011;75540;50.000;7.360;2024-01-16T11:36:50;7.53;;;3.72;;
39400;SDS011;75540;50.000;7.360;2024-01-16T11:39:22;15.25;;;4.68;;
39400;SDS011;75540;50.000;7.360;2024-01-16T11:41:52;9.70;;;4.00;;
39400;SDS011;75540;50.000;7.360;2024-01-16T11:44:40;8.35;;;3.67;;
39400;SDS011;75540;50.000;7.360;2024-01-16T11:47:15;10.63;;;4.53;;
39400;SDS011;75540;50.000;7.360;2024-01-16T11:49:44;13.10;;;4.70;;
39400;SDS011;75540;50.000;7.360;2024-01-16T11:52:14;8.00;;;4.35;;
39400;SDS011;75540;50.000;7.360;2024-01-16T11:55:14;8.88;;;3.92;;
39400;SDS011;75540;50.000;7.360;2024-01-16T11:57:58;11.07;;;3.65;;
39400;SDS011;75540;50.000;7.360;2024-01-16T12:00:49;14.15;;;3.30;;
39400;SDS011;75540;50.000;7.360;2024-01-16T12:03:19;8.82;;;3.65;;
39400;SDS011;75540;50.000;7.360;2024-01-16T12:05:57;14.15;;;3.45;;
39400;SDS011;75540;50.000;7.360;2024-01-16T12:08:27;8.45;;;4.25;;
39400;SDS011;75540;50.000;7.360;2024-01-16T12:10:56;11.20;;;4.78;;
39400;SDS011;75540;50.000;7.360;2024-01-16T12:13:24;5.97;;;3.30;;
39400;SDS011;75540;50.000;7.360;2024-01-16T12:15:59;8.32;;;3.50;;
39400;SDS011;75540;50.000;7.360;2024-01-16T12:18:27;7.30;;;2.85;;
39400;SDS011;75540;50.000;7.360;2024-01-16T12:20:56;10.30;;;2.88;;
39400;SDS011;75540;50.000;7.360;2024-01-16T12:23:24;7.13;;;2.65;;
39400;SDS011;75540;50.000;7.360;2024-01-16T12:25:54;5.47;;;2.65;;
39400;SDS011;75540;50.000;7.360;2024-01-16T12:28:26;7.38;;;2.90;;
39400;SDS011;75540;50.000;7.360;2024-01-16T12:30:55;6.60;;;3.17;;
39400;SDS011;75540;50.000;7.360;2024-01-16T12:33:24;6.40;;;3.33;;
39400;SDS011;75540;50.000;7.360;2024-01-16T12:36:00;8.25;;;3.42;;
39400;SDS011;75540;50.000;7.360;2024-01-16T12:38:29;7.20;;;3.30;;
39400;SDS011;75540;50.000;7.360;2024-01-16T12:40:59;8.20;;;3.22;;
39400;SDS011;75540;50.000;7.360;2024-01-16T12:43:29;6.55;;;2.63;;
39400;SDS011;75540;50.000;7.360;2024-01-16T12:45:57;9.45;;;3.55;;
39400;SDS011;75540;50.000;7.360;2024-01-16T12:48:25;7.35;;;2.38;;
39400;SDS011;75540;50.000;7.360;2024-01-16T12:50:58;6.35;;;3.05;;
39400;SDS011;75540;50.000;7.360;2024-01-16T12:53:28;9.93;;;3.28;;
39400;SDS011;75540;50.000;7.360;2024-01-16T12:55:59;9.25;;;3.03;;
39400;SDS011;75540;50.000;7.360;2024-01-16T12:58:33;9.15;;;3.88;;
39400;SDS011;75540;50.000;7.360;2024-01-16T13:01:22;7.63;;;3.42;;
39400;SDS011;75540;50.000;7.360;2024-01-16T13:03:51;8.27;;;3.40;;
39400;SDS011;75540;50.000;7.360;2024-01-16T13:06:20;10.02;;;3.97;;
39400;SDS011;75540;50.000;7.360;2024-01-16T13:08:49;8.63;;;3.78;;
39400;SDS011;75540;50.000;7.360;2024-01-16T13:11:20;13.77;;;3.78;;
39400;SDS011;75540;50.000;7.360;2024-01-16T13:13:48;9.13;;;3.67;;
39400;SDS011;75540;50.000;7.360;2024-01-16T13:16:29;11.93;;;3.50;;
39400;SDS011;75540;50.000;7.360;2024-01-16T13:18:59;6.43;;;3.95;;
39400;SDS011;75540;50.000;7.360;2024-01-16T13:21:28;9.23;;;4.00;;
39400;SDS011;75540;50.000;7.360;2024-01-16T13:23:57;12.35;;;4.57;;
39400;SDS011;75540;50.000;7.360;2024-01-16T13:26:27;8.90;;;3.80;;
39400;SDS011;75540;50.000;7.360;2024-01-16T13:28:56;14.95;;;3.70;;
39400;SDS011;75540;50.000;7.360;2024-01-16T13:31:24;7.13;;;3.30;;
39400;SDS011;75540;50.000;7.360;2024-01-16T13:33:52;8.98;;;2.50;;
39400;SDS011;75540;50.000;7.360;2024-01-16T13:36:22;9.23;;;2.55;;
39400;SDS011;75540;50.000;7.360;2024-01-16T13:38:51;9.65;;;2.75;;
39400;SDS011;75540;50.000;7.360;2024-01-16T13:41:20;5.53;;;2.00;;
39400;SDS011;75540;50.000;7.360;2024-01-16T13:43:50;6.05;;;2.75;;
39400;SDS011;75540;50.000;7.360;2024-01-16T13:46:18;5.47;;;2.03;;
39400;SDS011;75540;50.000;7.360;2024-01-16T13:48:46;7.78;;;2.22;;
39400;SDS011;75540;50.000;7.360;2024-01-16T13:51:15;11.10;;;2.15;;
39400;SDS011;75540;50.000;7.360;2024-01-16T13:53:43;6.50;;;2.33;;
39400;SDS011;75540;50.000;7.360;2024-01-16T13:56:11;5.40;;;2.15;;
39400;SDS011;75540;50.000;7.360;2024-01-16T13:58:39;8.88;;;2.67;;
39400;SDS011;75540;50.000;7.360;2024-01-16T14:01:09;8.68;;;2.88;;
39400;SDS011;75540;50.000;7.360;2024-01-16T14:03:38;6.45;;;2.42;;
39400;SDS011;75540;50.000;7.360;2024-01-16T14:06:11;5.40;;;2.17;;
39400;SDS011;75540;50.000;7.360;2024-01-16T14:08:40;6.63;;;3.33;;
39400;SDS011;75540;50.000;7.360;2024-01-16T14:11:08;11.80;;;2.38;;
39400;SDS011;75540;50.000;7.360;2024-01-16T14:13:36;4.75;;;3.05;;
39400;SDS011;75540;50.000;7.360;2024-01-16T14:16:05;9.27;;;2.53;;
39400;SDS011;75540;50.000;7.360;2024-01-16T14:18:34;6.22;;;3.30;;
39400;SDS011;75540;50.000;7.360;2024-01-16T14:21:03;7.50;;;2.55;;
39400;SDS011;75540;50.000;7.360;2024-01-16T14:23:31;10.52;;;2.88;;
39400;SDS011;75540;50.000;7.360;2024-01-16T14:26:00;5.35;;;2.65;;
39400;SDS011;75540;50.000;7.360;2024-01-16T14:28:28;7.35;;;2.88;;
39400;SDS011;75540;50.000;7.360;2024-01-16T14:30:56;9.32;;;3.00;;
39400;SDS011;75540;50.000;7.360;2024-01-16T14:33:24;6.55;;;3.00;;
39400;SDS011;75540;50.000;7.360;2024-01-16T14:35:54;5.10;;;2.67;;
39400;SDS011;75540;50.000;7.360;2024-01-16T14:38:22;5.72;;;2.67;;
39400;SDS011;75540;50.000;7.360;2024-01-16T14:40:50;5.88;;;2.50;;
39400;SDS011;75540;50.000;7.360;2024-01-16T14:43:22;4.75;;;2.13;;
39400;SDS011;75540;50.000;7.360;2024-01-16T14:45:50;6.93;;;2.55;;
39400;SDS011;75540;50.000;7.360;2024-01-16T14:48:18;7.47;;;2.97;;
39400;SDS011;75540;50.000;7.360;2024-01-16T14:50:47;7.15;;;2.97;;
39400;SDS011;75540;50.000;7.360;2024-01-16T14:53:17;10.65;;;3.00;;
39400;SDS011;75540;50.000;7.360;2024-01-16T14:55:45;8.15;;;3.20;;